sensor_id;sensor_type;location;lat;lon;timestamp;temperature;humidity
14884;DHT22;7534;50.762;7.000;2023-06-05T00:01:17;14.60;94.60
14884;DHT22;7534;50.762;7.000;2023-06-05T00:03:43;14.50;95.10
14884;DHT22;7534;50.762;7.000;2023-06-05T00:06:09;14.50;94.70
14884;DHT22;7534;50.762;7.000;2023-06-05T00:08:35;14.50;94.80
14884;DHT22;7534;50.762;7.000;2023-06-05T00:11:01;14.40;94.80
14884;DHT22;7534;50.762;7.000;2023-06-05T00:13:26;14.30;95.50
14884;DHT22;7534;50.762;7.000;2023-06-05T00:15:52;14.20;96.40
14884;DHT22;7534;50.762;7.000;2023-06-05T00:18:18;14.10;97.00
14884;DHT22;7534;50.762;7.000;2023-06-05T00:20:44;14.10;97.40
14884;DHT22;7534;50.762;7.000;2023-06-05T00:23:10;14.10;98.70
14884;DHT22;7534;50.762;7.000;2023-06-05T00:25:38;14.10;98.90
14884;DHT22;7534;50.762;7.000;2023-06-05T00:28:04;14.10;98.10
14884;DHT22;7534;50.762;7.000;2023-06-05T00:30:31;14.10;97.70
14884;DHT22;7534;50.762;7.000;2023-06-05T00:32:57;14.10;97.70
14884;DHT22;7534;50.762;7.000;2023-06-05T00:35:23;14.00;97.40
14884;DHT22;7534;50.762;7.000;2023-06-05T00:37:48;14.00;97.50
14884;DHT22;7534;50.762;7.000;2023-06-05T00:40:14;13.90;97.90
14884;DHT22;7534;50.762;7.000;2023-06-05T00:42:40;13.90;97.90
14884;DHT22;7534;50.762;7.000;2023-06-05T00:45:06;13.90;97.70
14884;DHT22;7534;50.762;7.000;2023-06-05T00:47:32;13.90;97.40
14884;DHT22;7534;50.762;7.000;2023-06-05T00:49:59;13.80;97.30
14884;DHT22;7534;50.762;7.000;2023-06-05T00:52:26;13.80;97.40
14884;DHT22;7534;50.762;7.000;2023-06-05T00:54:53;13.80;97.10
14884;DHT22;7534;50.762;7.000;2023-06-05T00:57:20;13.80;96.00
14884;DHT22;7534;50.762;7.000;2023-06-05T00:59:45;13.80;95.40
14884;DHT22;7534;50.762;7.000;2023-06-05T01:02:12;13.80;94.90
14884;DHT22;7534;50.762;7.000;2023-06-05T01:04:42;13.70;94.90
14884;DHT22;7534;50.762;7.000;2023-06-05T01:07:13;13.70;95.20
14884;DHT22;7534;50.762;7.000;2023-06-05T01:09:41;13.70;95.40
14884;DHT22;7534;50.762;7.000;2023-06-05T01:12:28;13.70;95.70
14884;DHT22;7534;50.762;7.000;2023-06-05T01:15:01;13.70;95.70
14884;DHT22;7534;50.762;7.000;2023-06-05T01:17:28;13.60;95.90
14884;DHT22;7534;50.762;7.000;2023-06-05T01:19:57;13.60;96.10
14884;DHT22;7534;50.762;7.000;2023-06-05T01:22:32;13.60;96.50
14884;DHT22;7534;50.762;7.000;2023-06-05T01:24:57;13.60;96.90
14884;DHT22;7534;50.762;7.000;2023-06-05T01:27:37;13.50;97.00
14884;DHT22;7534;50.762;7.000;2023-06-05T01:30:29;13.50;97.50
14884;DHT22;7534;50.762;7.000;2023-06-05T01:33:07;13.40;97.90
14884;DHT22;7534;50.762;7.000;2023-06-05T01:35:46;13.50;98.50
14884;DHT22;7534;50.762;7.000;2023-06-05T01:38:17;13.30;99.00
14884;DHT22;7534;50.762;7.000;2023-06-05T01:40:45;13.30;99.20
14884;DHT22;7534;50.762;7.000;2023-06-05T01:43:13;13.20;98.80
14884;DHT22;7534;50.762;7.000;2023-06-05T01:45:39;13.20;99.10
14884;DHT22;7534;50.762;7.000;2023-06-05T01:48:08;13.10;99.50
14884;DHT22;7534;50.762;7.000;2023-06-05T01:50:38;13.10;99.90
14884;DHT22;7534;50.762;7.000;2023-06-05T01:53:04;13.00;99.90
14884;DHT22;7534;50.762;7.000;2023-06-05T01:55:31;13.00;99.90
14884;DHT22;7534;50.762;7.000;2023-06-05T01:57:57;12.90;99.90
14884;DHT22;7534;50.762;7.000;2023-06-05T02:00:23;12.90;99.90
14884;DHT22;7534;50.762;7.000;2023-06-05T02:02:49;12.90;99.90
14884;DHT22;7534;50.762;7.000;2023-06-05T02:05:16;12.90;99.90
14884;DHT22;7534;50.762;7.000;2023-06-05T02:07:47;12.80;99.20
14884;DHT22;7534;50.762;7.000;2023-06-05T02:10:23;12.80;99.00
14884;DHT22;7534;50.762;7.000;2023-06-05T02:12:50;12.80;99.50
14884;DHT22;7534;50.762;7.000;2023-06-05T02:15:17;12.70;99.60
14884;DHT22;7534;50.762;7.000;2023-06-05T02:17:44;12.70;99.70
14884;DHT22;7534;50.762;7.000;2023-06-05T02:20:15;12.60;99.40
14884;DHT22;7534;50.762;7.000;2023-06-05T02:22:41;12.60;99.50
14884;DHT22;7534;50.762;7.000;2023-06-05T02:25:08;12.60;99.50
14884;DHT22;7534;50.762;7.000;2023-06-05T02:27:36;12.60;99.70
14884;DHT22;7534;50.762;7.000;2023-06-05T02:30:02;12.60;99.80
14884;DHT22;7534;50.762;7.000;2023-06-05T02:32:28;12.50;99.90
14884;DHT22;7534;50.762;7.000;2023-06-05T02:34:55;12.50;99.70
14884;DHT22;7534;50.762;7.000;2023-06-05T02:37:23;12.50;99.80
14884;DHT22;7534;50.762;7.000;2023-06-05T02:39:50;12.40;99.90
14884;DHT22;7534;50.762;7.000;2023-06-05T02:42:16;12.40;99.90
14884;DHT22;7534;50.762;7.000;2023-06-05T02:44:44;12.30;99.90
14884;DHT22;7534;50.762;7.000;2023-06-05T02:47:10;12.20;99.90
14884;DHT22;7534;50.762;7.000;2023-06-05T02:49:36;12.20;99.90
14884;DHT22;7534;50.762;7.000;2023-06-05T02:52:04;12.20;99.90
14884;DHT22;7534;50.762;7.000;2023-06-05T02:54:30;12.10;99.90
14884;DHT22;7534;50.762;7.000;2023-06-05T02:56:56;12.00;99.90
14884;DHT22;7534;50.762;7.000;2023-06-05T02:59:25;12.00;99.90
14884;DHT22;7534;50.762;7.000;2023-06-05T03:01:52;12.00;99.90
14884;DHT22;7534;50.762;7.000;2023-06-05T03:04:19;12.00;99.90
14884;DHT22;7534;50.762;7.000;2023-06-05T03:06:50;12.00;99.90
14884;DHT22;7534;50.762;7.000;2023-06-05T03:09:19;12.00;99.90
14884;DHT22;7534;50.762;7.000;2023-06-05T03:11:45;11.90;99.90
14884;DHT22;7534;50.762;7.000;2023-06-05T03:14:10;12.00;99.90
14884;DHT22;7534;50.762;7.000;2023-06-05T03:16:36;11.90;99.90
14884;DHT22;7534;50.762;7.000;2023-06-05T03:19:09;11.90;99.90
14884;DHT22;7534;50.762;7.000;2023-06-05T03:21:36;11.90;99.90
14884;DHT22;7534;50.762;7.000;2023-06-05T03:24:04;11.80;99.90
14884;DHT22;7534;50.762;7.000;2023-06-05T03:26:30;11.80;99.90
14884;DHT22;7534;50.762;7.000;2023-06-05T03:28:57;11.80;99.90
14884;DHT22;7534;50.762;7.000;2023-06-05T03:31:23;11.80;99.90
14884;DHT22;7534;50.762;7.000;2023-06-05T03:33:49;11.80;99.90
14884;DHT22;7534;50.762;7.000;2023-06-05T03:36:16;11.80;99.90
14884;DHT22;7534;50.762;7.000;2023-06-05T03:38:45;11.80;99.90
14884;DHT22;7534;50.762;7.000;2023-06-05T03:41:11;11.80;99.90
14884;DHT22;7534;50.762;7.000;2023-06-05T03:43:37;11.90;99.90
14884;DHT22;7534;50.762;7.000;2023-06-05T03:46:03;11.80;99.90
14884;DHT22;7534;50.762;7.000;2023-06-05T03:48:29;11.90;99.90
14884;DHT22;7534;50.762;7.000;2023-06-05T03:50:55;11.90;99.90
14884;DHT22;7534;50.762;7.000;2023-06-05T03:53:22;12.00;99.90
14884;DHT22;7534;50.762;7.000;2023-06-05T03:55:48;12.00;99.90
14884;DHT22;7534;50.762;7.000;2023-06-05T03:58:18;12.10;99.90
14884;DHT22;7534;50.762;7.000;2023-06-05T04:00:48;12.10;99.90
14884;DHT22;7534;50.762;7.000;2023-06-05T04:03:17;12.20;99.90
14884;DHT22;7534;50.762;7.000;2023-06-05T04:05:44;12.30;99.90
14884;DHT22;7534;50.762;7.000;2023-06-05T04:08:10;12.40;99.90
14884;DHT22;7534;50.762;7.000;2023-06-05T04:10:36;12.40;99.90
14884;DHT22;7534;50.762;7.000;2023-06-05T04:13:02;12.50;99.90
14884;DHT22;7534;50.762;7.000;2023-06-05T04:15:28;12.60;99.80
14884;DHT22;7534;50.762;7.000;2023-06-05T04:17:55;12.80;99.60
14884;DHT22;7534;50.762;7.000;2023-06-05T04:20:21;13.00;99.20
14884;DHT22;7534;50.762;7.000;2023-06-05T04:22:47;13.10;98.60
14884;DHT22;7534;50.762;7.000;2023-06-05T04:25:13;13.20;98.40
14884;DHT22;7534;50.762;7.000;2023-06-05T04:27:40;13.40;97.70
14884;DHT22;7534;50.762;7.000;2023-06-05T04:30:09;13.60;97.40
14884;DHT22;7534;50.762;7.000;2023-06-05T04:32:38;13.80;97.10
14884;DHT22;7534;50.762;7.000;2023-06-05T04:35:11;13.90;96.80
14884;DHT22;7534;50.762;7.000;2023-06-05T04:37:38;14.40;96.40
14884;DHT22;7534;50.762;7.000;2023-06-05T04:40:07;14.90;95.10
14884;DHT22;7534;50.762;7.000;2023-06-05T04:42:35;15.30;94.70
14884;DHT22;7534;50.762;7.000;2023-06-05T04:45:03;16.60;93.30
14884;DHT22;7534;50.762;7.000;2023-06-05T04:47:31;18.40;89.90
14884;DHT22;7534;50.762;7.000;2023-06-05T04:50:01;20.10;84.60
14884;DHT22;7534;50.762;7.000;2023-06-05T04:52:30;21.60;77.70
14884;DHT22;7534;50.762;7.000;2023-06-05T04:54:58;22.90;70.50
14884;DHT22;7534;50.762;7.000;2023-06-05T04:57:26;24.10;66.00
14884;DHT22;7534;50.762;7.000;2023-06-05T04:59:53;25.00;67.20
14884;DHT22;7534;50.762;7.000;2023-06-05T05:02:20;25.10;63.30
14884;DHT22;7534;50.762;7.000;2023-06-05T05:04:46;24.80;62.40
14884;DHT22;7534;50.762;7.000;2023-06-05T05:07:11;24.10;60.90
14884;DHT22;7534;50.762;7.000;2023-06-05T05:09:44;23.40;60.10
14884;DHT22;7534;50.762;7.000;2023-06-05T05:12:11;22.50;61.30
14884;DHT22;7534;50.762;7.000;2023-06-05T05:14:37;22.00;63.80
14884;DHT22;7534;50.762;7.000;2023-06-05T05:17:05;21.40;65.50
14884;DHT22;7534;50.762;7.000;2023-06-05T05:19:31;21.00;67.70
14884;DHT22;7534;50.762;7.000;2023-06-05T05:21:57;21.00;69.80
14884;DHT22;7534;50.762;7.000;2023-06-05T05:24:23;21.90;69.90
14884;DHT22;7534;50.762;7.000;2023-06-05T05:26:50;23.60;67.00
14884;DHT22;7534;50.762;7.000;2023-06-05T05:29:16;26.30;56.20
14884;DHT22;7534;50.762;7.000;2023-06-05T05:31:43;26.30;55.80
14884;DHT22;7534;50.762;7.000;2023-06-05T05:34:10;26.10;53.90
14884;DHT22;7534;50.762;7.000;2023-06-05T05:36:36;25.10;56.00
14884;DHT22;7534;50.762;7.000;2023-06-05T05:39:02;24.00;57.60
14884;DHT22;7534;50.762;7.000;2023-06-05T05:41:28;23.00;60.30
14884;DHT22;7534;50.762;7.000;2023-06-05T05:43:54;22.10;63.60
14884;DHT22;7534;50.762;7.000;2023-06-05T05:46:21;21.50;66.50
14884;DHT22;7534;50.762;7.000;2023-06-05T05:48:46;20.80;69.70
14884;DHT22;7534;50.762;7.000;2023-06-05T05:51:12;20.30;72.70
14884;DHT22;7534;50.762;7.000;2023-06-05T05:53:38;19.90;75.00
14884;DHT22;7534;50.762;7.000;2023-06-05T05:56:03;19.50;77.00
14884;DHT22;7534;50.762;7.000;2023-06-05T05:58:30;19.30;78.40
14884;DHT22;7534;50.762;7.000;2023-06-05T06:00:57;19.00;79.60
14884;DHT22;7534;50.762;7.000;2023-06-05T06:03:25;18.80;81.30
14884;DHT22;7534;50.762;7.000;2023-06-05T06:05:52;18.70;82.40
14884;DHT22;7534;50.762;7.000;2023-06-05T06:08:18;18.60;83.40
14884;DHT22;7534;50.762;7.000;2023-06-05T06:10:44;18.60;84.80
14884;DHT22;7534;50.762;7.000;2023-06-05T06:13:11;18.50;85.60
14884;DHT22;7534;50.762;7.000;2023-06-05T06:15:37;18.60;85.80
14884;DHT22;7534;50.762;7.000;2023-06-05T06:18:04;18.50;85.60
14884;DHT22;7534;50.762;7.000;2023-06-05T06:20:31;18.50;85.20
14884;DHT22;7534;50.762;7.000;2023-06-05T06:22:59;18.50;86.00
14884;DHT22;7534;50.762;7.000;2023-06-05T06:25:25;18.40;85.70
14884;DHT22;7534;50.762;7.000;2023-06-05T06:27:54;18.40;86.40
14884;DHT22;7534;50.762;7.000;2023-06-05T06:30:20;18.50;85.70
14884;DHT22;7534;50.762;7.000;2023-06-05T06:32:49;18.50;86.10
14884;DHT22;7534;50.762;7.000;2023-06-05T06:35:15;18.50;86.20
14884;DHT22;7534;50.762;7.000;2023-06-05T06:37:41;18.60;86.50
14884;DHT22;7534;50.762;7.000;2023-06-05T06:40:08;18.90;87.30
14884;DHT22;7534;50.762;7.000;2023-06-05T06:42:35;18.90;84.20
14884;DHT22;7534;50.762;7.000;2023-06-05T06:45:01;19.00;83.10
14884;DHT22;7534;50.762;7.000;2023-06-05T06:47:28;19.10;82.90
14884;DHT22;7534;50.762;7.000;2023-06-05T06:49:54;19.20;84.40
14884;DHT22;7534;50.762;7.000;2023-06-05T06:52:20;20.10;82.90
14884;DHT22;7534;50.762;7.000;2023-06-05T06:54:46;22.90;76.00
14884;DHT22;7534;50.762;7.000;2023-06-05T06:57:12;28.30;52.10
14884;DHT22;7534;50.762;7.000;2023-06-05T06:59:38;28.80;51.60
14884;DHT22;7534;50.762;7.000;2023-06-05T07:04:51;33.90;37.70
14884;DHT22;7534;50.762;7.000;2023-06-05T07:07:19;34.50;35.40
14884;DHT22;7534;50.762;7.000;2023-06-05T07:09:48;35.60;38.00
14884;DHT22;7534;50.762;7.000;2023-06-05T07:12:18;36.90;47.10
14884;DHT22;7534;50.762;7.000;2023-06-05T07:14:45;38.00;28.80
14884;DHT22;7534;50.762;7.000;2023-06-05T07:17:12;38.30;26.90
14884;DHT22;7534;50.762;7.000;2023-06-05T07:19:38;39.00;26.50
14884;DHT22;7534;50.762;7.000;2023-06-05T07:22:05;39.20;25.70
14884;DHT22;7534;50.762;7.000;2023-06-05T07:24:32;39.80;28.20
14884;DHT22;7534;50.762;7.000;2023-06-05T07:27:01;40.40;33.90
14884;DHT22;7534;50.762;7.000;2023-06-05T07:29:28;40.80;41.80
14884;DHT22;7534;50.762;7.000;2023-06-05T07:31:56;40.00;22.80
14884;DHT22;7534;50.762;7.000;2023-06-05T07:34:31;41.70;23.10
14884;DHT22;7534;50.762;7.000;2023-06-05T07:36:58;42.20;22.60
14884;DHT22;7534;50.762;7.000;2023-06-05T07:39:24;42.60;22.10
14884;DHT22;7534;50.762;7.000;2023-06-05T07:41:50;42.80;22.00
14884;DHT22;7534;50.762;7.000;2023-06-05T07:46:50;42.90;20.50
14884;DHT22;7534;50.762;7.000;2023-06-05T07:49:16;43.40;20.90
14884;DHT22;7534;50.762;7.000;2023-06-05T07:51:44;43.20;19.60
14884;DHT22;7534;50.762;7.000;2023-06-05T07:54:14;42.80;20.30
14884;DHT22;7534;50.762;7.000;2023-06-05T07:56:41;41.50;20.70
14884;DHT22;7534;50.762;7.000;2023-06-05T07:59:07;41.40;21.50
14884;DHT22;7534;50.762;7.000;2023-06-05T08:01:34;40.70;22.00
14884;DHT22;7534;50.762;7.000;2023-06-05T08:04:05;41.40;21.60
14884;DHT22;7534;50.762;7.000;2023-06-05T08:06:33;41.60;20.80
14884;DHT22;7534;50.762;7.000;2023-06-05T08:09:04;41.10;21.30
14884;DHT22;7534;50.762;7.000;2023-06-05T08:11:30;41.60;21.00
14884;DHT22;7534;50.762;7.000;2023-06-05T08:13:58;41.70;21.40
14884;DHT22;7534;50.762;7.000;2023-06-05T08:16:24;42.70;20.60
14884;DHT22;7534;50.762;7.000;2023-06-05T08:18:49;43.00;20.30
14884;DHT22;7534;50.762;7.000;2023-06-05T08:21:15;43.00;20.80
14884;DHT22;7534;50.762;7.000;2023-06-05T08:23:42;43.40;20.50
14884;DHT22;7534;50.762;7.000;2023-06-05T08:26:07;43.70;20.10
14884;DHT22;7534;50.762;7.000;2023-06-05T08:28:40;43.70;20.10
14884;DHT22;7534;50.762;7.000;2023-06-05T08:31:07;43.30;18.70
14884;DHT22;7534;50.762;7.000;2023-06-05T08:33:35;43.90;19.70
14884;DHT22;7534;50.762;7.000;2023-06-05T08:36:02;44.70;19.40
14884;DHT22;7534;50.762;7.000;2023-06-05T08:38:29;44.00;18.80
14884;DHT22;7534;50.762;7.000;2023-06-05T08:41:03;43.80;19.50
14884;DHT22;7534;50.762;7.000;2023-06-05T08:43:37;43.70;18.90
14884;DHT22;7534;50.762;7.000;2023-06-05T08:46:05;44.00;19.10
14884;DHT22;7534;50.762;7.000;2023-06-05T08:48:42;44.40;18.90
14884;DHT22;7534;50.762;7.000;2023-06-05T08:51:14;44.80;18.60
14884;DHT22;7534;50.762;7.000;2023-06-05T08:53:42;43.80;18.10
14884;DHT22;7534;50.762;7.000;2023-06-05T08:56:13;43.20;18.70
14884;DHT22;7534;50.762;7.000;2023-06-05T08:58:39;43.10;18.60
14884;DHT22;7534;50.762;7.000;2023-06-05T09:01:08;42.00;18.30
14884;DHT22;7534;50.762;7.000;2023-06-05T09:03:34;40.50;18.90
14884;DHT22;7534;50.762;7.000;2023-06-05T09:06:00;38.90;27.10
14884;DHT22;7534;50.762;7.000;2023-06-05T09:08:32;38.50;26.90
14884;DHT22;7534;50.762;7.000;2023-06-05T09:11:30;38.20;26.70
14884;DHT22;7534;50.762;7.000;2023-06-05T09:13:59;38.00;26.30
14884;DHT22;7534;50.762;7.000;2023-06-05T09:16:43;36.80;27.90
14884;DHT22;7534;50.762;7.000;2023-06-05T09:19:10;36.60;27.80
14884;DHT22;7534;50.762;7.000;2023-06-05T09:21:37;36.90;26.30
14884;DHT22;7534;50.762;7.000;2023-06-05T09:24:16;38.10;24.60
14884;DHT22;7534;50.762;7.000;2023-06-05T09:26:50;38.70;21.80
14884;DHT22;7534;50.762;7.000;2023-06-05T09:29:22;39.20;21.10
14884;DHT22;7534;50.762;7.000;2023-06-05T09:31:51;38.80;21.00
14884;DHT22;7534;50.762;7.000;2023-06-05T09:36:50;39.00;21.40
14884;DHT22;7534;50.762;7.000;2023-06-05T09:39:18;39.40;22.20
14884;DHT22;7534;50.762;7.000;2023-06-05T09:41:46;39.90;21.00
14884;DHT22;7534;50.762;7.000;2023-06-05T09:44:15;39.40;21.10
14884;DHT22;7534;50.762;7.000;2023-06-05T09:46:58;39.10;21.60
14884;DHT22;7534;50.762;7.000;2023-06-05T09:49:32;39.30;21.10
14884;DHT22;7534;50.762;7.000;2023-06-05T09:52:13;38.60;22.00
14884;DHT22;7534;50.762;7.000;2023-06-05T09:54:43;37.40;21.50
14884;DHT22;7534;50.762;7.000;2023-06-05T09:57:11;36.70;21.30
14884;DHT22;7534;50.762;7.000;2023-06-05T09:59:50;37.10;21.60
14884;DHT22;7534;50.762;7.000;2023-06-05T10:02:23;37.60;21.30
14884;DHT22;7534;50.762;7.000;2023-06-05T10:05:02;37.60;21.10
14884;DHT22;7534;50.762;7.000;2023-06-05T10:07:33;37.60;21.10
14884;DHT22;7534;50.762;7.000;2023-06-05T10:10:01;37.50;21.00
14884;DHT22;7534;50.762;7.000;2023-06-05T10:12:27;36.70;21.90
14884;DHT22;7534;50.762;7.000;2023-06-05T10:14:56;35.10;35.80
14884;DHT22;7534;50.762;7.000;2023-06-05T10:17:23;34.60;30.00
14884;DHT22;7534;50.762;7.000;2023-06-05T10:19:50;34.70;29.50
14884;DHT22;7534;50.762;7.000;2023-06-05T10:22:19;33.90;29.10
14884;DHT22;7534;50.762;7.000;2023-06-05T10:24:52;34.10;29.30
14884;DHT22;7534;50.762;7.000;2023-06-05T10:27:47;34.70;28.30
14884;DHT22;7534;50.762;7.000;2023-06-05T10:36:31;33.60;35.10
14884;DHT22;7534;50.762;7.000;2023-06-05T10:39:21;33.50;35.10
14884;DHT22;7534;50.762;7.000;2023-06-05T10:41:50;33.40;33.80
14884;DHT22;7534;50.762;7.000;2023-06-05T10:44:17;33.60;32.10
14884;DHT22;7534;50.762;7.000;2023-06-05T10:46:43;33.40;30.10
14884;DHT22;7534;50.762;7.000;2023-06-05T10:49:16;31.90;28.20
14884;DHT22;7534;50.762;7.000;2023-06-05T10:51:51;31.70;27.00
14884;DHT22;7534;50.762;7.000;2023-06-05T10:59:35;31.50;26.70
14884;DHT22;7534;50.762;7.000;2023-06-05T11:07:29;30.60;26.00
14884;DHT22;7534;50.762;7.000;2023-06-05T11:15:39;30.60;27.40
14884;DHT22;7534;50.762;7.000;2023-06-05T11:23:26;28.90;27.70
14884;DHT22;7534;50.762;7.000;2023-06-05T11:25:55;28.50;28.80
14884;DHT22;7534;50.762;7.000;2023-06-05T11:28:42;28.60;28.70
14884;DHT22;7534;50.762;7.000;2023-06-05T11:31:09;28.70;28.30
14884;DHT22;7534;50.762;7.000;2023-06-05T11:33:35;28.20;28.90
14884;DHT22;7534;50.762;7.000;2023-06-05T11:36:04;28.20;29.10
14884;DHT22;7534;50.762;7.000;2023-06-05T11:38:33;28.30;28.90
14884;DHT22;7534;50.762;7.000;2023-06-05T11:40:59;28.30;29.40
14884;DHT22;7534;50.762;7.000;2023-06-05T11:43:25;28.40;28.20
14884;DHT22;7534;50.762;7.000;2023-06-05T11:45:54;28.20;28.30
14884;DHT22;7534;50.762;7.000;2023-06-05T11:48:22;28.30;28.70
14884;DHT22;7534;50.762;7.000;2023-06-05T11:53:22;28.50;27.80
14884;DHT22;7534;50.762;7.000;2023-06-05T11:55:48;28.60;27.20
14884;DHT22;7534;50.762;7.000;2023-06-05T11:58:26;28.60;26.80
14884;DHT22;7534;50.762;7.000;2023-06-05T12:01:13;27.70;27.40
14884;DHT22;7534;50.762;7.000;2023-06-05T12:03:44;27.90;28.40
14884;DHT22;7534;50.762;7.000;2023-06-05T12:06:11;28.10;28.60
14884;DHT22;7534;50.762;7.000;2023-06-05T12:08:39;28.20;28.60
14884;DHT22;7534;50.762;7.000;2023-06-05T12:11:26;28.10;28.40
14884;DHT22;7534;50.762;7.000;2023-06-05T12:13:54;28.40;27.70
14884;DHT22;7534;50.762;7.000;2023-06-05T12:16:33;28.30;27.60
14884;DHT22;7534;50.762;7.000;2023-06-05T12:19:02;28.30;27.70
14884;DHT22;7534;50.762;7.000;2023-06-05T12:21:38;28.50;28.20
14884;DHT22;7534;50.762;7.000;2023-06-05T12:24:04;29.20;26.70
14884;DHT22;7534;50.762;7.000;2023-06-05T12:29:22;29.70;25.70
14884;DHT22;7534;50.762;7.000;2023-06-05T12:31:50;29.80;25.80
14884;DHT22;7534;50.762;7.000;2023-06-05T12:34:16;30.00;26.40
14884;DHT22;7534;50.762;7.000;2023-06-05T12:36:44;29.20;26.50
14884;DHT22;7534;50.762;7.000;2023-06-05T12:39:12;28.80;27.30
14884;DHT22;7534;50.762;7.000;2023-06-05T12:41:39;28.60;27.30
14884;DHT22;7534;50.762;7.000;2023-06-05T12:44:05;28.60;27.70
14884;DHT22;7534;50.762;7.000;2023-06-05T12:46:33;28.90;27.30
14884;DHT22;7534;50.762;7.000;2023-06-05T12:49:01;29.00;27.00
14884;DHT22;7534;50.762;7.000;2023-06-05T12:51:28;29.60;26.50
14884;DHT22;7534;50.762;7.000;2023-06-05T12:53:55;30.00;26.00
14884;DHT22;7534;50.762;7.000;2023-06-05T12:56:22;29.70;26.10
14884;DHT22;7534;50.762;7.000;2023-06-05T12:58:56;29.50;26.00
14884;DHT22;7534;50.762;7.000;2023-06-05T13:01:24;29.60;27.10
14884;DHT22;7534;50.762;7.000;2023-06-05T13:03:56;30.00;27.00
14884;DHT22;7534;50.762;7.000;2023-06-05T13:06:22;30.20;26.00
14884;DHT22;7534;50.762;7.000;2023-06-05T13:08:48;30.40;26.20
14884;DHT22;7534;50.762;7.000;2023-06-05T13:11:14;30.40;25.60
14884;DHT22;7534;50.762;7.000;2023-06-05T13:13:40;30.30;26.00
14884;DHT22;7534;50.762;7.000;2023-06-05T13:16:07;30.40;26.20
14884;DHT22;7534;50.762;7.000;2023-06-05T13:18:34;30.60;25.80
14884;DHT22;7534;50.762;7.000;2023-06-05T13:21:02;30.90;24.90
14884;DHT22;7534;50.762;7.000;2023-06-05T13:23:29;30.90;25.50
14884;DHT22;7534;50.762;7.000;2023-06-05T13:25:55;31.10;26.00
14884;DHT22;7534;50.762;7.000;2023-06-05T13:28:21;31.20;24.90
14884;DHT22;7534;50.762;7.000;2023-06-05T13:30:46;31.30;26.00
14884;DHT22;7534;50.762;7.000;2023-06-05T13:33:12;31.30;26.90
14884;DHT22;7534;50.762;7.000;2023-06-05T13:35:39;31.50;25.80
14884;DHT22;7534;50.762;7.000;2023-06-05T13:38:05;31.50;26.50
14884;DHT22;7534;50.762;7.000;2023-06-05T13:40:31;31.50;25.80
14884;DHT22;7534;50.762;7.000;2023-06-05T13:42:58;31.40;24.30
14884;DHT22;7534;50.762;7.000;2023-06-05T13:45:24;31.00;25.00
14884;DHT22;7534;50.762;7.000;2023-06-05T13:47:51;31.10;24.90
14884;DHT22;7534;50.762;7.000;2023-06-05T13:50:18;31.10;24.90
14884;DHT22;7534;50.762;7.000;2023-06-05T13:52:45;31.10;25.70
14884;DHT22;7534;50.762;7.000;2023-06-05T13:55:11;31.20;25.00
14884;DHT22;7534;50.762;7.000;2023-06-05T13:57:37;31.50;26.20
14884;DHT22;7534;50.762;7.000;2023-06-05T14:00:04;31.60;24.80
14884;DHT22;7534;50.762;7.000;2023-06-05T14:02:31;31.80;24.60
14884;DHT22;7534;50.762;7.000;2023-06-05T14:04:57;31.90;24.30
14884;DHT22;7534;50.762;7.000;2023-06-05T14:07:23;32.10;24.50
14884;DHT22;7534;50.762;7.000;2023-06-05T14:09:49;32.20;24.40
14884;DHT22;7534;50.762;7.000;2023-06-05T14:12:14;32.50;24.90
14884;DHT22;7534;50.762;7.000;2023-06-05T14:14:41;32.50;23.90
14884;DHT22;7534;50.762;7.000;2023-06-05T14:17:07;32.50;24.50
14884;DHT22;7534;50.762;7.000;2023-06-05T14:19:33;32.60;24.90
14884;DHT22;7534;50.762;7.000;2023-06-05T14:21:58;32.20;23.00
14884;DHT22;7534;50.762;7.000;2023-06-05T14:24:24;32.10;24.50
14884;DHT22;7534;50.762;7.000;2023-06-05T14:26:50;32.30;25.60
14884;DHT22;7534;50.762;7.000;2023-06-05T14:29:16;32.30;23.60
14884;DHT22;7534;50.762;7.000;2023-06-05T14:31:41;32.30;23.60
14884;DHT22;7534;50.762;7.000;2023-06-05T14:34:07;32.40;24.30
14884;DHT22;7534;50.762;7.000;2023-06-05T14:36:34;32.50;22.50
14884;DHT22;7534;50.762;7.000;2023-06-05T14:39:01;32.70;24.10
14884;DHT22;7534;50.762;7.000;2023-06-05T14:41:28;32.70;23.00
14884;DHT22;7534;50.762;7.000;2023-06-05T14:43:55;32.40;22.60
14884;DHT22;7534;50.762;7.000;2023-06-05T14:46:21;32.30;23.00
14884;DHT22;7534;50.762;7.000;2023-06-05T14:48:47;32.20;22.60
14884;DHT22;7534;50.762;7.000;2023-06-05T14:51:12;32.10;22.40
14884;DHT22;7534;50.762;7.000;2023-06-05T14:53:38;32.10;22.00
14884;DHT22;7534;50.762;7.000;2023-06-05T14:56:04;31.60;21.90
14884;DHT22;7534;50.762;7.000;2023-06-05T14:58:30;31.60;21.50
14884;DHT22;7534;50.762;7.000;2023-06-05T15:00:56;31.70;21.50
14884;DHT22;7534;50.762;7.000;2023-06-05T15:03:21;31.50;21.90
14884;DHT22;7534;50.762;7.000;2023-06-05T15:05:47;31.60;22.30
14884;DHT22;7534;50.762;7.000;2023-06-05T15:08:13;31.80;22.90
14884;DHT22;7534;50.762;7.000;2023-06-05T15:10:38;32.20;22.60
14884;DHT22;7534;50.762;7.000;2023-06-05T15:13:04;32.50;21.00
14884;DHT22;7534;50.762;7.000;2023-06-05T15:15:30;32.70;21.60
14884;DHT22;7534;50.762;7.000;2023-06-05T15:17:56;32.70;21.20
14884;DHT22;7534;50.762;7.000;2023-06-05T15:20:22;32.80;21.60
14884;DHT22;7534;50.762;7.000;2023-06-05T15:22:48;32.80;22.00
14884;DHT22;7534;50.762;7.000;2023-06-05T15:25:14;32.80;21.80
14884;DHT22;7534;50.762;7.000;2023-06-05T15:27:40;32.50;22.00
14884;DHT22;7534;50.762;7.000;2023-06-05T15:30:07;32.30;21.90
14884;DHT22;7534;50.762;7.000;2023-06-05T15:32:33;32.00;22.40
14884;DHT22;7534;50.762;7.000;2023-06-05T15:34:59;32.00;23.20
14884;DHT22;7534;50.762;7.000;2023-06-05T15:37:24;31.90;22.70
14884;DHT22;7534;50.762;7.000;2023-06-05T15:39:50;31.20;22.70
14884;DHT22;7534;50.762;7.000;2023-06-05T15:42:36;30.80;22.70
14884;DHT22;7534;50.762;7.000;2023-06-05T15:45:20;30.90;24.00
14884;DHT22;7534;50.762;7.000;2023-06-05T15:47:46;30.50;25.90
14884;DHT22;7534;50.762;7.000;2023-06-05T15:50:12;30.50;26.90
14884;DHT22;7534;50.762;7.000;2023-06-05T15:52:38;30.30;28.20
14884;DHT22;7534;50.762;7.000;2023-06-05T15:55:05;30.30;27.40
14884;DHT22;7534;50.762;7.000;2023-06-05T15:57:31;30.40;27.80
14884;DHT22;7534;50.762;7.000;2023-06-05T15:59:56;30.70;27.00
14884;DHT22;7534;50.762;7.000;2023-06-05T16:02:25;30.60;27.50
14884;DHT22;7534;50.762;7.000;2023-06-05T16:04:51;30.50;27.50
14884;DHT22;7534;50.762;7.000;2023-06-05T16:07:17;30.40;27.10
14884;DHT22;7534;50.762;7.000;2023-06-05T16:09:43;29.80;26.80
14884;DHT22;7534;50.762;7.000;2023-06-05T16:12:09;29.50;27.30
14884;DHT22;7534;50.762;7.000;2023-06-05T16:14:36;29.50;28.00
14884;DHT22;7534;50.762;7.000;2023-06-05T16:17:02;29.20;28.60
14884;DHT22;7534;50.762;7.000;2023-06-05T16:19:29;29.50;29.30
14884;DHT22;7534;50.762;7.000;2023-06-05T16:21:55;29.60;27.80
14884;DHT22;7534;50.762;7.000;2023-06-05T16:24:23;30.00;27.40
14884;DHT22;7534;50.762;7.000;2023-06-05T16:26:48;30.20;28.40
14884;DHT22;7534;50.762;7.000;2023-06-05T16:29:14;30.50;27.60
14884;DHT22;7534;50.762;7.000;2023-06-05T16:31:41;31.00;27.40